sensor_id;sensor_type;location;lat;lon;timestamp;P1;durP1;ratioP1;P2;durP2;ratioP2
19998;SDS011;10160;50.926;4.374;2024-03-22T00:00:20;58.73;;;25.10;;
19998;SDS011;10160;50.926;4.374;2024-03-22T00:02:46;50.50;;;25.00;;
19998;SDS011;10160;50.926;4.374;2024-03-22T00:05:12;51.60;;;26.20;;
19998;SDS011;10160;50.926;4.374;2024-03-22T00:07:37;48.17;;;26.07;;
19998;SDS011;10160;50.926;4.374;2024-03-22T00:10:03;44.80;;;23.10;;
19998;SDS011;10160;50.926;4.374;2024-03-22T00:12:30;48.13;;;24.53;;
19998;SDS011;10160;50.926;4.374;2024-03-22T00:14:56;51.27;;;23.97;;
19998;SDS011;10160;50.926;4.374;2024-03-22T00:17:22;44.60;;;22.27;;
19998;SDS011;10160;50.926;4.374;2024-03-22T00:19:47;46.70;;;22.13;;
19998;SDS011;10160;50.926;4.374;2024-03-22T00:22:13;43.63;;;19.40;;
19998;SDS011;10160;50.926;4.374;2024-03-22T00:24:39;50.23;;;24.23;;
19998;SDS011;10160;50.926;4.374;2024-03-22T00:27:05;46.20;;;23.03;;
19998;SDS011;10160;50.926;4.374;2024-03-22T00:29:31;46.33;;;22.83;;
19998;SDS011;10160;50.926;4.374;2024-03-22T00:31:56;41.80;;;23.13;;
19998;SDS011;10160;50.926;4.374;2024-03-22T00:34:22;46.37;;;22.60;;
19998;SDS011;10160;50.926;4.374;2024-03-22T00:36:47;41.77;;;22.37;;
19998;SDS011;10160;50.926;4.374;2024-03-22T00:39:13;45.67;;;22.70;;
19998;SDS011;10160;50.926;4.374;2024-03-22T00:41:38;42.97;;;22.50;;
19998;SDS011;10160;50.926;4.374;2024-03-22T00:44:04;45.20;;;23.60;;
19998;SDS011;10160;50.926;4.374;2024-03-22T00:46:30;44.87;;;23.63;;
19998;SDS011;10160;50.926;4.374;2024-03-22T00:48:56;43.37;;;21.87;;
19998;SDS011;10160;50.926;4.374;2024-03-22T00:51:21;44.63;;;24.10;;
19998;SDS011;10160;50.926;4.374;2024-03-22T00:53:47;43.43;;;22.00;;
19998;SDS011;10160;50.926;4.374;2024-03-22T00:56:13;43.63;;;18.70;;
19998;SDS011;10160;50.926;4.374;2024-03-22T00:58:38;44.70;;;21.83;;
19998;SDS011;10160;50.926;4.374;2024-03-22T01:01:04;46.03;;;22.43;;
19998;SDS011;10160;50.926;4.374;2024-03-22T01:03:29;43.03;;;22.77;;
19998;SDS011;10160;50.926;4.374;2024-03-22T01:05:55;42.80;;;22.30;;
19998;SDS011;10160;50.926;4.374;2024-03-22T01:08:22;43.17;;;22.53;;
19998;SDS011;10160;50.926;4.374;2024-03-22T01:10:48;43.60;;;21.73;;
19998;SDS011;10160;50.926;4.374;2024-03-22T01:13:13;43.80;;;22.93;;
19998;SDS011;10160;50.926;4.374;2024-03-22T01:15:39;43.10;;;21.10;;
19998;SDS011;10160;50.926;4.374;2024-03-22T01:18:04;40.23;;;22.37;;
19998;SDS011;10160;50.926;4.374;2024-03-22T01:20:30;48.83;;;23.30;;
19998;SDS011;10160;50.926;4.374;2024-03-22T01:22:56;45.40;;;21.43;;
19998;SDS011;10160;50.926;4.374;2024-03-22T01:25:21;38.43;;;19.70;;
19998;SDS011;10160;50.926;4.374;2024-03-22T01:27:47;43.50;;;23.27;;
19998;SDS011;10160;50.926;4.374;2024-03-22T01:30:13;47.60;;;22.77;;
19998;SDS011;10160;50.926;4.374;2024-03-22T01:32:38;35.43;;;18.03;;
19998;SDS011;10160;50.926;4.374;2024-03-22T01:35:04;42.70;;;22.30;;
19998;SDS011;10160;50.926;4.374;2024-03-22T01:37:30;44.90;;;22.23;;
19998;SDS011;10160;50.926;4.374;2024-03-22T01:39:55;45.70;;;21.97;;
19998;SDS011;10160;50.926;4.374;2024-03-22T01:42:21;46.77;;;23.47;;
19998;SDS011;10160;50.926;4.374;2024-03-22T01:44:48;46.90;;;22.93;;
19998;SDS011;10160;50.926;4.374;2024-03-22T01:47:14;38.00;;;19.07;;
19998;SDS011;10160;50.926;4.374;2024-03-22T01:49:40;45.20;;;22.80;;
19998;SDS011;10160;50.926;4.374;2024-03-22T01:52:06;50.57;;;25.00;;
19998;SDS011;10160;50.926;4.374;2024-03-22T01:54:32;46.53;;;23.03;;
19998;SDS011;10160;50.926;4.374;2024-03-22T01:56:58;45.33;;;22.90;;
19998;SDS011;10160;50.926;4.374;2024-03-22T01:59:24;40.77;;;22.40;;
19998;SDS011;10160;50.926;4.374;2024-03-22T02:01:50;38.37;;;18.60;;
19998;SDS011;10160;50.926;4.374;2024-03-22T02:04:16;37.93;;;18.27;;
19998;SDS011;10160;50.926;4.374;2024-03-22T02:06:42;43.93;;;21.93;;
19998;SDS011;10160;50.926;4.374;2024-03-22T02:09:08;41.43;;;19.53;;
19998;SDS011;10160;50.926;4.374;2024-03-22T02:11:36;46.77;;;23.17;;
19998;SDS011;10160;50.926;4.374;2024-03-22T02:14:03;42.07;;;22.93;;
19998;SDS011;10160;50.926;4.374;2024-03-22T02:16:29;40.83;;;17.47;;
19998;SDS011;10160;50.926;4.374;2024-03-22T02:18:55;41.40;;;20.77;;
19998;SDS011;10160;50.926;4.374;2024-03-22T02:21:20;42.63;;;21.43;;
19998;SDS011;10160;50.926;4.374;2024-03-22T02:23:46;36.17;;;18.23;;
19998;SDS011;10160;50.926;4.374;2024-03-22T02:26:12;43.47;;;21.00;;
19998;SDS011;10160;50.926;4.374;2024-03-22T02:28:37;41.50;;;20.70;;
19998;SDS011;10160;50.926;4.374;2024-03-22T02:31:03;36.97;;;19.57;;
19998;SDS011;10160;50.926;4.374;2024-03-22T02:33:29;41.53;;;21.07;;
19998;SDS011;10160;50.926;4.374;2024-03-22T02:35:54;37.63;;;17.90;;
19998;SDS011;10160;50.926;4.374;2024-03-22T02:38:20;32.40;;;16.30;;
19998;SDS011;10160;50.926;4.374;2024-03-22T02:40:46;39.00;;;19.83;;
19998;SDS011;10160;50.926;4.374;2024-03-22T02:43:13;32.70;;;17.73;;
19998;SDS011;10160;50.926;4.374;2024-03-22T02:45:39;40.33;;;18.50;;
19998;SDS011;10160;50.926;4.374;2024-03-22T02:48:05;39.23;;;19.27;;
19998;SDS011;10160;50.926;4.374;2024-03-22T02:50:34;32.20;;;16.53;;
19998;SDS011;10160;50.926;4.374;2024-03-22T02:53:01;44.53;;;20.03;;
19998;SDS011;10160;50.926;4.374;2024-03-22T02:55:27;41.63;;;19.30;;
19998;SDS011;10160;50.926;4.374;2024-03-22T02:57:53;36.27;;;18.73;;
19998;SDS011;10160;50.926;4.374;2024-03-22T03:00:20;43.27;;;19.83;;
19998;SDS011;10160;50.926;4.374;2024-03-22T03:02:46;37.83;;;18.73;;
19998;SDS011;10160;50.926;4.374;2024-03-22T03:05:12;35.70;;;19.23;;
19998;SDS011;10160;50.926;4.374;2024-03-22T03:07:37;37.70;;;19.17;;
19998;SDS011;10160;50.926;4.374;2024-03-22T03:10:03;38.30;;;18.13;;
19998;SDS011;10160;50.926;4.374;2024-03-22T03:12:29;35.07;;;18.20;;
19998;SDS011;10160;50.926;4.374;2024-03-22T03:14:54;39.57;;;18.70;;
19998;SDS011;10160;50.926;4.374;2024-03-22T03:17:20;39.17;;;20.27;;
19998;SDS011;10160;50.926;4.374;2024-03-22T03:19:46;32.60;;;17.80;;
19998;SDS011;10160;50.926;4.374;2024-03-22T03:22:11;42.00;;;18.03;;
19998;SDS011;10160;50.926;4.374;2024-03-22T03:24:37;38.73;;;17.00;;
19998;SDS011;10160;50.926;4.374;2024-03-22T03:27:03;35.20;;;18.47;;
19998;SDS011;10160;50.926;4.374;2024-03-22T03:29:28;36.63;;;17.40;;
19998;SDS011;10160;50.926;4.374;2024-03-22T03:31:54;38.23;;;18.10;;
19998;SDS011;10160;50.926;4.374;2024-03-22T03:34:19;36.40;;;15.60;;
19998;SDS011;10160;50.926;4.374;2024-03-22T03:36:45;36.97;;;17.40;;
19998;SDS011;10160;50.926;4.374;2024-03-22T03:39:11;37.60;;;18.13;;
19998;SDS011;10160;50.926;4.374;2024-03-22T03:41:37;39.53;;;18.43;;
19998;SDS011;10160;50.926;4.374;2024-03-22T03:44:02;39.93;;;17.30;;
19998;SDS011;10160;50.926;4.374;2024-03-22T03:46:28;29.37;;;13.40;;
19998;SDS011;10160;50.926;4.374;2024-03-22T03:48:53;37.23;;;17.63;;
19998;SDS011;10160;50.926;4.374;2024-03-22T03:51:19;34.90;;;16.63;;
19998;SDS011;10160;50.926;4.374;2024-03-22T03:53:45;32.93;;;16.43;;
19998;SDS011;10160;50.926;4.374;2024-03-22T03:56:10;42.87;;;17.77;;
19998;SDS011;10160;50.926;4.374;2024-03-22T03:58:36;36.60;;;16.13;;
19998;SDS011;10160;50.926;4.374;2024-03-22T04:01:08;33.67;;;17.00;;
19998;SDS011;10160;50.926;4.374;2024-03-22T04:03:34;40.90;;;18.87;;
19998;SDS011;10160;50.926;4.374;2024-03-22T04:06:00;37.73;;;16.53;;
19998;SDS011;10160;50.926;4.374;2024-03-22T04:08:26;31.30;;;14.03;;
19998;SDS011;10160;50.926;4.374;2024-03-22T04:10:52;35.23;;;16.63;;
19998;SDS011;10160;50.926;4.374;2024-03-22T04:13:24;37.13;;;16.13;;
19998;SDS011;10160;50.926;4.374;2024-03-22T04:15:50;33.03;;;15.43;;
19998;SDS011;10160;50.926;4.374;2024-03-22T04:18:16;25.10;;;12.10;;
19998;SDS011;10160;50.926;4.374;2024-03-22T04:20:42;30.43;;;15.07;;
19998;SDS011;10160;50.926;4.374;2024-03-22T04:23:09;33.27;;;14.30;;
19998;SDS011;10160;50.926;4.374;2024-03-22T04:25:34;31.70;;;14.70;;
19998;SDS011;10160;50.926;4.374;2024-03-22T04:28:00;33.13;;;14.43;;
19998;SDS011;10160;50.926;4.374;2024-03-22T04:30:26;31.13;;;15.70;;
19998;SDS011;10160;50.926;4.374;2024-03-22T04:32:51;33.83;;;15.07;;
19998;SDS011;10160;50.926;4.374;2024-03-22T04:35:17;31.87;;;14.33;;
19998;SDS011;10160;50.926;4.374;2024-03-22T04:37:42;41.00;;;16.47;;
19998;SDS011;10160;50.926;4.374;2024-03-22T04:40:08;31.33;;;14.53;;
19998;SDS011;10160;50.926;4.374;2024-03-22T04:42:35;31.83;;;14.20;;
19998;SDS011;10160;50.926;4.374;2024-03-22T04:45:00;29.73;;;13.57;;
19998;SDS011;10160;50.926;4.374;2024-03-22T04:47:26;32.73;;;15.67;;
19998;SDS011;10160;50.926;4.374;2024-03-22T04:49:52;33.97;;;15.73;;
19998;SDS011;10160;50.926;4.374;2024-03-22T04:52:17;36.23;;;15.23;;
19998;SDS011;10160;50.926;4.374;2024-03-22T04:54:43;36.43;;;16.13;;
19998;SDS011;10160;50.926;4.374;2024-03-22T04:57:08;33.10;;;16.20;;
19998;SDS011;10160;50.926;4.374;2024-03-22T04:59:34;33.60;;;14.50;;
19998;SDS011;10160;50.926;4.374;2024-03-22T05:02:00;24.07;;;10.83;;
19998;SDS011;10160;50.926;4.374;2024-03-22T05:04:25;30.33;;;13.33;;
19998;SDS011;10160;50.926;4.374;2024-03-22T05:06:51;30.40;;;14.00;;
19998;SDS011;10160;50.926;4.374;2024-03-22T05:09:16;34.27;;;16.10;;
19998;SDS011;10160;50.926;4.374;2024-03-22T05:11:42;34.23;;;16.37;;
19998;SDS011;10160;50.926;4.374;2024-03-22T05:14:08;36.00;;;16.67;;
19998;SDS011;10160;50.926;4.374;2024-03-22T05:16:33;33.70;;;16.10;;
19998;SDS011;10160;50.926;4.374;2024-03-22T05:18:59;30.77;;;14.97;;
19998;SDS011;10160;50.926;4.374;2024-03-22T05:21:24;38.27;;;17.77;;
19998;SDS011;10160;50.926;4.374;2024-03-22T05:23:50;37.80;;;16.90;;
19998;SDS011;10160;50.926;4.374;2024-03-22T05:26:16;35.70;;;16.00;;
19998;SDS011;10160;50.926;4.374;2024-03-22T05:28:43;35.77;;;17.10;;
19998;SDS011;10160;50.926;4.374;2024-03-22T05:31:09;27.83;;;12.97;;
19998;SDS011;10160;50.926;4.374;2024-03-22T05:33:34;34.63;;;17.27;;
19998;SDS011;10160;50.926;4.374;2024-03-22T05:36:00;41.93;;;17.50;;
19998;SDS011;10160;50.926;4.374;2024-03-22T05:38:25;36.83;;;17.33;;
19998;SDS011;10160;50.926;4.374;2024-03-22T05:40:51;36.67;;;16.60;;
19998;SDS011;10160;50.926;4.374;2024-03-22T05:43:17;30.23;;;15.87;;
19998;SDS011;10160;50.926;4.374;2024-03-22T05:45:42;34.33;;;17.43;;
19998;SDS011;10160;50.926;4.374;2024-03-22T05:48:08;39.43;;;17.30;;
19998;SDS011;10160;50.926;4.374;2024-03-22T05:50:33;35.53;;;15.63;;
19998;SDS011;10160;50.926;4.374;2024-03-22T05:52:59;35.80;;;17.90;;
19998;SDS011;10160;50.926;4.374;2024-03-22T05:55:24;40.80;;;18.43;;
19998;SDS011;10160;50.926;4.374;2024-03-22T05:57:52;38.50;;;17.53;;
19998;SDS011;10160;50.926;4.374;2024-03-22T06:00:18;37.47;;;17.70;;
19998;SDS011;10160;50.926;4.374;2024-03-22T06:02:43;36.07;;;17.23;;
19998;SDS011;10160;50.926;4.374;2024-03-22T06:05:09;39.70;;;18.70;;
19998;SDS011;10160;50.926;4.374;2024-03-22T06:07:34;35.67;;;17.23;;
19998;SDS011;10160;50.926;4.374;2024-03-22T06:10:06;42.03;;;17.93;;
19998;SDS011;10160;50.926;4.374;2024-03-22T06:12:34;35.33;;;16.07;;
19998;SDS011;10160;50.926;4.374;2024-03-22T06:15:00;37.90;;;16.33;;
19998;SDS011;10160;50.926;4.374;2024-03-22T06:17:26;27.93;;;12.83;;
19998;SDS011;10160;50.926;4.374;2024-03-22T06:19:52;37.07;;;16.40;;
19998;SDS011;10160;50.926;4.374;2024-03-22T06:22:17;31.60;;;14.83;;
19998;SDS011;10160;50.926;4.374;2024-03-22T06:24:44;39.63;;;15.37;;
19998;SDS011;10160;50.926;4.374;2024-03-22T06:27:10;40.50;;;16.27;;
19998;SDS011;10160;50.926;4.374;2024-03-22T06:29:35;28.93;;;12.70;;
19998;SDS011;10160;50.926;4.374;2024-03-22T06:32:01;34.10;;;15.03;;
19998;SDS011;10160;50.926;4.374;2024-03-22T06:34:26;31.83;;;14.37;;
19998;SDS011;10160;50.926;4.374;2024-03-22T06:36:52;29.77;;;15.30;;
19998;SDS011;10160;50.926;4.374;2024-03-22T06:39:18;29.30;;;14.43;;
19998;SDS011;10160;50.926;4.374;2024-03-22T06:41:44;31.57;;;13.70;;
19998;SDS011;10160;50.926;4.374;2024-03-22T06:44:10;19.23;;;8.90;;
19998;SDS011;10160;50.926;4.374;2024-03-22T06:46:37;23.90;;;10.73;;
19998;SDS011;10160;50.926;4.374;2024-03-22T06:49:03;23.67;;;11.57;;
19998;SDS011;10160;50.926;4.374;2024-03-22T06:51:28;29.27;;;13.00;;
19998;SDS011;10160;50.926;4.374;2024-03-22T06:53:54;23.33;;;11.50;;
19998;SDS011;10160;50.926;4.374;2024-03-22T06:56:19;26.63;;;12.00;;
19998;SDS011;10160;50.926;4.374;2024-03-22T06:58:45;17.17;;;7.83;;
19998;SDS011;10160;50.926;4.374;2024-03-22T07:01:11;22.23;;;12.10;;
19998;SDS011;10160;50.926;4.374;2024-03-22T07:03:37;25.17;;;10.93;;
19998;SDS011;10160;50.926;4.374;2024-03-22T07:06:02;21.00;;;10.17;;
19998;SDS011;10160;50.926;4.374;2024-03-22T07:08:30;22.13;;;11.33;;
19998;SDS011;10160;50.926;4.374;2024-03-22T07:10:56;22.00;;;10.73;;
19998;SDS011;10160;50.926;4.374;2024-03-22T07:13:21;19.00;;;8.43;;
19998;SDS011;10160;50.926;4.374;2024-03-22T07:15:47;19.63;;;9.70;;
19998;SDS011;10160;50.926;4.374;2024-03-22T07:18:13;21.93;;;9.83;;
19998;SDS011;10160;50.926;4.374;2024-03-22T07:20:40;20.23;;;9.87;;
19998;SDS011;10160;50.926;4.374;2024-03-22T07:23:06;19.20;;;9.50;;
19998;SDS011;10160;50.926;4.374;2024-03-22T07:25:32;16.80;;;8.03;;
19998;SDS011;10160;50.926;4.374;2024-03-22T07:27:58;19.87;;;9.00;;
19998;SDS011;10160;50.926;4.374;2024-03-22T07:30:24;20.97;;;9.50;;
19998;SDS011;10160;50.926;4.374;2024-03-22T07:32:49;16.87;;;6.87;;
19998;SDS011;10160;50.926;4.374;2024-03-22T07:35:15;17.80;;;8.93;;
19998;SDS011;10160;50.926;4.374;2024-03-22T07:37:41;15.83;;;8.50;;
19998;SDS011;10160;50.926;4.374;2024-03-22T07:40:07;17.27;;;8.57;;
19998;SDS011;10160;50.926;4.374;2024-03-22T07:42:32;15.43;;;8.07;;
19998;SDS011;10160;50.926;4.374;2024-03-22T07:44:58;15.10;;;7.93;;
19998;SDS011;10160;50.926;4.374;2024-03-22T07:47:24;17.90;;;8.10;;
19998;SDS011;10160;50.926;4.374;2024-03-22T07:49:50;17.23;;;7.83;;
19998;SDS011;10160;50.926;4.374;2024-03-22T07:52:16;16.83;;;8.50;;
19998;SDS011;10160;50.926;4.374;2024-03-22T07:54:41;18.03;;;8.50;;
19998;SDS011;10160;50.926;4.374;2024-03-22T07:57:07;19.17;;;8.73;;
19998;SDS011;10160;50.926;4.374;2024-03-22T07:59:32;19.80;;;9.17;;
19998;SDS011;10160;50.926;4.374;2024-03-22T08:01:58;16.77;;;8.43;;
19998;SDS011;10160;50.926;4.374;2024-03-22T08:04:24;17.17;;;7.17;;
19998;SDS011;10160;50.926;4.374;2024-03-22T08:06:52;15.10;;;7.57;;
19998;SDS011;10160;50.926;4.374;2024-03-22T08:09:18;16.33;;;8.47;;
19998;SDS011;10160;50.926;4.374;2024-03-22T08:11:44;14.37;;;7.63;;
19998;SDS011;10160;50.926;4.374;2024-03-22T08:14:10;16.33;;;8.77;;
19998;SDS011;10160;50.926;4.374;2024-03-22T08:16:35;18.57;;;9.27;;
19998;SDS011;10160;50.926;4.374;2024-03-22T08:19:01;17.57;;;8.40;;
19998;SDS011;10160;50.926;4.374;2024-03-22T08:21:27;14.43;;;8.07;;
19998;SDS011;10160;50.926;4.374;2024-03-22T08:23:52;17.53;;;8.67;;
19998;SDS011;10160;50.926;4.374;2024-03-22T08:26:18;15.63;;;8.47;;
19998;SDS011;10160;50.926;4.374;2024-03-22T08:28:46;17.50;;;9.07;;
19998;SDS011;10160;50.926;4.374;2024-03-22T08:31:13;14.00;;;7.03;;
19998;SDS011;10160;50.926;4.374;2024-03-22T08:33:39;18.03;;;8.07;;
19998;SDS011;10160;50.926;4.374;2024-03-22T08:36:04;15.30;;;8.47;;
19998;SDS011;10160;50.926;4.374;2024-03-22T08:38:30;18.43;;;9.03;;
19998;SDS011;10160;50.926;4.374;2024-03-22T08:40:56;18.47;;;8.60;;
19998;SDS011;10160;50.926;4.374;2024-03-22T08:43:21;15.20;;;7.57;;
19998;SDS011;10160;50.926;4.374;2024-03-22T08:45:50;21.07;;;8.73;;
19998;SDS011;10160;50.926;4.374;2024-03-22T08:48:16;19.53;;;8.57;;
19998;SDS011;10160;50.926;4.374;2024-03-22T08:50:42;18.17;;;8.67;;
19998;SDS011;10160;50.926;4.374;2024-03-22T08:53:09;19.80;;;9.40;;
19998;SDS011;10160;50.926;4.374;2024-03-22T08:55:34;17.83;;;8.23;;
19998;SDS011;10160;50.926;4.374;2024-03-22T08:58:00;20.23;;;7.97;;
19998;SDS011;10160;50.926;4.374;2024-03-22T09:00:26;16.60;;;7.73;;
19998;SDS011;10160;50.926;4.374;2024-03-22T09:02:51;21.47;;;10.10;;
19998;SDS011;10160;50.926;4.374;2024-03-22T09:05:17;24.93;;;10.23;;
19998;SDS011;10160;50.926;4.374;2024-03-22T09:07:43;19.53;;;8.30;;
19998;SDS011;10160;50.926;4.374;2024-03-22T09:10:09;26.27;;;11.27;;
19998;SDS011;10160;50.926;4.374;2024-03-22T09:12:36;18.93;;;9.23;;
19998;SDS011;10160;50.926;4.374;2024-03-22T09:15:02;20.07;;;9.63;;
19998;SDS011;10160;50.926;4.374;2024-03-22T09:17:28;23.27;;;10.47;;
19998;SDS011;10160;50.926;4.374;2024-03-22T09:19:54;20.10;;;9.97;;
19998;SDS011;10160;50.926;4.374;2024-03-22T09:22:19;20.13;;;10.13;;
19998;SDS011;10160;50.926;4.374;2024-03-22T09:24:45;24.57;;;9.53;;
19998;SDS011;10160;50.926;4.374;2024-03-22T09:27:11;25.60;;;9.53;;
19998;SDS011;10160;50.926;4.374;2024-03-22T09:29:36;21.80;;;9.50;;
19998;SDS011;10160;50.926;4.374;2024-03-22T09:32:03;30.87;;;11.90;;
19998;SDS011;10160;50.926;4.374;2024-03-22T09:34:29;31.30;;;11.43;;
19998;SDS011;10160;50.926;4.374;2024-03-22T09:36:55;27.03;;;11.03;;
19998;SDS011;10160;50.926;4.374;2024-03-22T09:39:24;26.50;;;11.90;;
19998;SDS011;10160;50.926;4.374;2024-03-22T09:41:50;22.27;;;10.63;;
19998;SDS011;10160;50.926;4.374;2024-03-22T09:44:17;24.63;;;11.10;;
19998;SDS011;10160;50.926;4.374;2024-03-22T09:46:44;27.17;;;12.03;;
19998;SDS011;10160;50.926;4.374;2024-03-22T09:49:12;21.50;;;10.53;;
19998;SDS011;10160;50.926;4.374;2024-03-22T09:51:39;21.83;;;10.57;;
19998;SDS011;10160;50.926;4.374;2024-03-22T09:54:06;21.40;;;11.87;;
19998;SDS011;10160;50.926;4.374;2024-03-22T09:56:33;25.07;;;12.33;;
19998;SDS011;10160;50.926;4.374;2024-03-22T09:59:00;23.23;;;11.80;;
19998;SDS011;10160;50.926;4.374;2024-03-22T10:01:26;25.07;;;11.67;;
19998;SDS011;10160;50.926;4.374;2024-03-22T10:03:52;25.07;;;12.73;;
19998;SDS011;10160;50.926;4.374;2024-03-22T10:06:19;29.83;;;12.63;;
19998;SDS011;10160;50.926;4.374;2024-03-22T10:08:44;23.80;;;12.63;;
19998;SDS011;10160;50.926;4.374;2024-03-22T10:11:10;27.43;;;12.97;;
19998;SDS011;10160;50.926;4.374;2024-03-22T10:13:36;29.40;;;13.70;;
19998;SDS011;10160;50.926;4.374;2024-03-22T10:16:02;27.97;;;13.60;;
19998;SDS011;10160;50.926;4.374;2024-03-22T10:18:28;24.97;;;12.50;;
19998;SDS011;10160;50.926;4.374;2024-03-22T10:21:17;19.70;;;10.33;;
19998;SDS011;10160;50.926;4.374;2024-03-22T10:23:43;25.70;;;12.47;;
19998;SDS011;10160;50.926;4.374;2024-03-22T10:26:09;23.10;;;12.20;;
19998;SDS011;10160;50.926;4.374;2024-03-22T10:28:35;21.07;;;10.43;;
19998;SDS011;10160;50.926;4.374;2024-03-22T10:31:01;21.20;;;9.53;;
19998;SDS011;10160;50.926;4.374;2024-03-22T10:33:28;29.93;;;13.60;;
19998;SDS011;10160;50.926;4.374;2024-03-22T10:35:54;24.30;;;10.77;;
19998;SDS011;10160;50.926;4.374;2024-03-22T10:38:21;26.70;;;13.47;;
19998;SDS011;10160;50.926;4.374;2024-03-22T10:40:47;25.50;;;12.63;;
19998;SDS011;10160;50.926;4.374;2024-03-22T10:43:14;25.80;;;13.60;;
19998;SDS011;10160;50.926;4.374;2024-03-22T10:45:40;25.87;;;12.43;;
19998;SDS011;10160;50.926;4.374;2024-03-22T10:48:10;27.43;;;12.87;;
19998;SDS011;10160;50.926;4.374;2024-03-22T10:50:40;26.23;;;12.77;;
19998;SDS011;10160;50.926;4.374;2024-03-22T10:53:11;25.37;;;12.67;;
19998;SDS011;10160;50.926;4.374;2024-03-22T10:55:45;25.33;;;12.40;;
19998;SDS011;10160;50.926;4.374;2024-03-22T10:58:22;25.13;;;11.20;;
19998;SDS011;10160;50.926;4.374;2024-03-22T11:00:51;24.40;;;10.50;;
19998;SDS011;10160;50.926;4.374;2024-03-22T11:03:24;23.17;;;10.70;;
19998;SDS011;10160;50.926;4.374;2024-03-22T11:05:55;20.93;;;10.27;;
19998;SDS011;10160;50.926;4.374;2024-03-22T11:08:25;19.03;;;9.60;;
19998;SDS011;10160;50.926;4.374;2024-03-22T11:10:52;18.67;;;9.83;;
19998;SDS011;10160;50.926;4.374;2024-03-22T11:13:18;17.87;;;8.53;;
19998;SDS011;10160;50.926;4.374;2024-03-22T11:15:47;19.67;;;9.37;;
19998;SDS011;10160;50.926;4.374;2024-03-22T11:18:13;18.33;;;9.17;;
19998;SDS011;10160;50.926;4.374;2024-03-22T11:20:39;21.73;;;9.40;;
19998;SDS011;10160;50.926;4.374;2024-03-22T11:23:05;23.10;;;9.53;;
19998;SDS011;10160;50.926;4.374;2024-03-22T11:25:31;18.83;;;8.13;;
19998;SDS011;10160;50.926;4.374;2024-03-22T11:27:58;14.77;;;6.60;;
19998;SDS011;10160;50.926;4.374;2024-03-22T11:30:25;20.27;;;8.40;;
19998;SDS011;10160;50.926;4.374;2024-03-22T11:32:53;17.90;;;8.87;;
19998;SDS011;10160;50.926;4.374;2024-03-22T11:35:19;18.00;;;8.23;;
19998;SDS011;10160;50.926;4.374;2024-03-22T11:37:44;19.67;;;9.17;;
19998;SDS011;10160;50.926;4.374;2024-03-22T11:40:11;17.63;;;8.43;;
19998;SDS011;10160;50.926;4.374;2024-03-22T11:42:51;21.47;;;8.23;;
19998;SDS011;10160;50.926;4.374;2024-03-22T11:45:19;16.63;;;9.20;;
19998;SDS011;10160;50.926;4.374;2024-03-22T11:47:46;18.37;;;9.03;;
19998;SDS011;10160;50.926;4.374;2024-03-22T11:50:12;20.03;;;8.83;;
19998;SDS011;10160;50.926;4.374;2024-03-22T11:52:42;14.50;;;7.50;;
19998;SDS011;10160;50.926;4.374;2024-03-22T11:55:09;18.90;;;8.73;;
19998;SDS011;10160;50.926;4.374;2024-03-22T11:57:35;17.57;;;8.93;;
19998;SDS011;10160;50.926;4.374;2024-03-22T12:00:02;19.67;;;9.17;;
19998;SDS011;10160;50.926;4.374;2024-03-22T12:02:31;20.90;;;10.70;;
19998;SDS011;10160;50.926;4.374;2024-03-22T12:04:57;15.83;;;9.37;;
19998;SDS011;10160;50.926;4.374;2024-03-22T12:07:23;19.27;;;9.20;;
19998;SDS011;10160;50.926;4.374;2024-03-22T12:09:49;18.60;;;8.87;;
19998;SDS011;10160;50.926;4.374;2024-03-22T12:12:14;15.80;;;8.50;;
19998;SDS011;10160;50.926;4.374;2024-03-22T12:14:40;19.17;;;7.87;;
19998;SDS011;10160;50.926;4.374;2024-03-22T12:17:06;18.00;;;8.60;;
19998;SDS011;10160;50.926;4.374;2024-03-22T12:19:32;18.87;;;7.90;;
19998;SDS011;10160;50.926;4.374;2024-03-22T12:21:58;18.77;;;8.20;;
19998;SDS011;10160;50.926;4.374;2024-03-22T12:24:24;23.07;;;8.63;;
19998;SDS011;10160;50.926;4.374;2024-03-22T12:26:50;19.63;;;8.00;;
19998;SDS011;10160;50.926;4.374;2024-03-22T12:29:16;17.90;;;7.63;;
19998;SDS011;10160;50.926;4.374;2024-03-22T12:31:43;14.83;;;7.20;;
19998;SDS011;10160;50.926;4.374;2024-03-22T12:34:09;20.57;;;7.97;;
19998;SDS011;10160;50.926;4.374;2024-03-22T12:36:34;18.37;;;7.03;;
19998;SDS011;10160;50.926;4.374;2024-03-22T12:39:00;18.43;;;7.03;;
19998;SDS011;10160;50.926;4.374;2024-03-22T12:41:27;17.40;;;7.50;;
19998;SDS011;10160;50.926;4.374;2024-03-22T12:43:54;15.97;;;7.30;;
19998;SDS011;10160;50.926;4.374;2024-03-22T12:46:20;17.27;;;6.97;;
19998;SDS011;10160;50.926;4.374;2024-03-22T12:48:45;20.57;;;7.40;;
19998;SDS011;10160;50.926;4.374;2024-03-22T12:51:11;17.77;;;7.90;;
19998;SDS011;10160;50.926;4.374;2024-03-22T12:53:37;14.43;;;6.37;;
19998;SDS011;10160;50.926;4.374;2024-03-22T12:56:03;13.40;;;6.10;;
19998;SDS011;10160;50.926;4.374;2024-03-22T12:58:29;16.03;;;7.00;;
19998;SDS011;10160;50.926;4.374;2024-03-22T13:00:58;14.50;;;6.97;;
19998;SDS011;10160;50.926;4.374;2024-03-22T13:03:26;21.30;;;7.40;;
19998;SDS011;10160;50.926;4.374;2024-03-22T13:05:52;21.23;;;8.10;;
19998;SDS011;10160;50.926;4.374;2024-03-22T13:08:17;19.53;;;7.97;;
19998;SDS011;10160;50.926;4.374;2024-03-22T13:10:44;22.60;;;8.13;;
19998;SDS011;10160;50.926;4.374;2024-03-22T13:13:10;20.20;;;8.30;;
19998;SDS011;10160;50.926;4.374;2024-03-22T13:15:36;16.57;;;8.13;;
19998;SDS011;10160;50.926;4.374;2024-03-22T13:18:05;18.47;;;8.33;;
19998;SDS011;10160;50.926;4.374;2024-03-22T13:20:35;19.03;;;7.40;;
19998;SDS011;10160;50.926;4.374;2024-03-22T13:23:01;20.83;;;7.40;;
19998;SDS011;10160;50.926;4.374;2024-03-22T13:25:26;15.77;;;7.60;;
19998;SDS011;10160;50.926;4.374;2024-03-22T13:27:52;17.40;;;7.40;;
19998;SDS011;10160;50.926;4.374;2024-03-22T13:30:18;23.00;;;7.80;;
19998;SDS011;10160;50.926;4.374;2024-03-22T13:32:43;16.47;;;7.87;;
19998;SDS011;10160;50.926;4.374;2024-03-22T13:35:10;19.60;;;7.93;;
19998;SDS011;10160;50.926;4.374;2024-03-22T13:37:35;16.70;;;7.10;;
19998;SDS011;10160;50.926;4.374;2024-03-22T13:40:01;19.37;;;6.87;;
19998;SDS011;10160;50.926;4.374;2024-03-22T13:42:27;22.20;;;7.50;;
19998;SDS011;10160;50.926;4.374;2024-03-22T13:44:53;15.80;;;7.93;;
19998;SDS011;10160;50.926;4.374;2024-03-22T13:47:19;16.27;;;6.93;;
19998;SDS011;10160;50.926;4.374;2024-03-22T13:49:44;21.20;;;7.17;;
19998;SDS011;10160;50.926;4.374;2024-03-22T13:52:10;17.40;;;6.80;;
19998;SDS011;10160;50.926;4.374;2024-03-22T13:54:36;19.23;;;7.13;;
19998;SDS011;10160;50.926;4.374;2024-03-22T13:57:02;18.27;;;6.47;;
19998;SDS011;10160;50.926;4.374;2024-03-22T13:59:28;20.70;;;7.03;;
19998;SDS011;10160;50.926;4.374;2024-03-22T14:01:54;13.90;;;6.70;;
19998;SDS011;10160;50.926;4.374;2024-03-22T14:04:21;17.20;;;7.00;;
19998;SDS011;10160;50.926;4.374;2024-03-22T14:06:47;20.17;;;7.20;;
19998;SDS011;10160;50.926;4.374;2024-03-22T14:09:13;27.60;;;8.23;;
19998;SDS011;10160;50.926;4.374;2024-03-22T14:11:40;23.93;;;6.53;;
19998;SDS011;10160;50.926;4.374;2024-03-22T14:14:07;16.87;;;7.50;;
19998;SDS011;10160;50.926;4.374;2024-03-22T14:16:39;17.23;;;7.40;;
19998;SDS011;10160;50.926;4.374;2024-03-22T14:19:05;15.60;;;6.93;;